Time;durP1;ratioP1;P1;durP2;ratioP2;P2;SDS_P1;SDS_P2;PMS_P1;PMS_P2;Temp;Humidity;BMP_temperature;BMP_pressure;BME280_temperature;BME280_humidity;BME280_pressure;Samples;Min_cycle;Max_cycle;Signal;HPM_P1;HPM_P2
2022/10/14 00:01:11;;;;;;;58.80;30.25;;;;;;;4.29;100.00;98427.58;1788676;80;21052;-80
2022/10/14 00:03:39;;;;;;;71.50;36.20;;;;;;;4.32;100.00;98435.16;1773644;79;21010;-81
2022/10/14 00:06:08;;;;;;;68.83;38.17;;;;;;;4.33;100.00;98430.09;1768572;79;21053;-81
2022/10/14 00:08:34;;;;;;;75.47;37.95;;;;;;;4.33;100.00;98424.20;1799845;79;21484;-80
2022/10/14 00:11:09;;;;;;;74.03;34.80;;;;;;;4.30;100.00;98426.01;1800050;79;21098;-81
2022/10/14 00:13:35;;;;;;;72.92;36.45;;;;;;;4.27;100.00;98420.27;1789706;80;20973;-81
2022/10/14 00:16:01;;;;;;;80.75;35.60;;;;;;;4.23;100.00;98423.41;1790409;80;20902;-81
2022/10/14 00:18:27;;;;;;;68.12;34.95;;;;;;;4.21;100.00;98419.34;1790173;80;21001;-81
2022/10/14 00:20:56;;;;;;;79.42;40.12;;;;;;;4.18;100.00;98421.11;1790340;80;21512;-81
2022/10/14 00:23:22;;;;;;;72.65;38.90;;;;;;;4.11;100.00;98413.71;1821269;78;21824;-81
2022/10/14 00:25:48;;;;;;;83.17;40.95;;;;;;;4.08;100.00;98415.48;1822693;78;20861;-81
2022/10/14 00:28:14;;;;;;;76.28;37.53;;;;;;;4.10;100.00;98415.58;1822610;78;20940;-80
2022/10/14 00:30:40;;;;;;;68.92;38.08;;;;;;;4.06;100.00;98409.02;1822826;78;20880;-80
2022/10/14 00:33:06;;;;;;;70.92;35.05;;;;;;;4.08;100.00;98408.26;1822493;78;20965;-80
2022/10/14 00:35:31;;;;;;;61.00;32.23;;;;;;;4.10;100.00;98409.36;1822515;78;21889;-81
2022/10/14 00:37:58;;;;;;;62.78;32.55;;;;;;;4.11;100.00;98408.34;1822650;78;20874;-81
2022/10/14 00:40:25;;;;;;;58.38;32.78;;;;;;;4.12;100.00;98412.66;1822446;78;22102;-81
2022/10/14 00:42:51;;;;;;;63.35;34.67;;;;;;;4.14;100.00;98411.38;1822673;78;21000;-81
2022/10/14 00:45:24;;;;;;;63.23;32.45;;;;;;;4.18;100.00;98410.38;1822494;78;20861;-80
2022/10/14 00:47:49;;;;;;;60.63;32.78;;;;;;;4.17;100.00;98407.41;1810395;78;21145;-82
2022/10/14 00:50:15;;;;;;;64.35;33.60;;;;;;;4.19;100.00;98402.66;1788842;79;20984;-80
2022/10/14 00:52:42;;;;;;;66.47;33.65;;;;;;;4.19;100.00;98402.13;1788958;80;20866;-81
2022/10/14 00:55:13;;;;;;;56.50;31.57;;;;;;;4.20;100.00;98404.30;1804980;79;21005;-81
2022/10/14 00:57:38;;;;;;;58.00;31.20;;;;;;;4.25;100.00;98396.36;1759067;80;20996;-80
2022/10/14 01:00:12;;;;;;;56.20;30.57;;;;;;;4.30;100.00;98398.36;1788635;80;21538;-81
2022/10/14 01:02:38;;;;;;;59.03;30.77;;;;;;;4.35;100.00;98395.79;1788797;80;21036;-81
2022/10/14 01:05:05;;;;;;;64.42;34.60;;;;;;;4.39;100.00;98391.61;1769327;80;21010;-80
2022/10/14 01:08:04;;;;;;;63.45;33.98;;;;;;;4.44;100.00;98392.56;1794593;80;21016;-81
2022/10/14 01:10:51;;;;;;;;;;;;;;;4.49;100.00;98393.20;1797359;78;20977;-80
2022/10/14 01:13:31;;;;;;;70.70;31.48;;;;;;;4.48;100.00;98394.25;1796351;79;21324;-81
2022/10/14 01:16:25;;;;;;;57.95;30.95;;;;;;;4.43;100.00;98396.27;1796432;79;21001;-81
2022/10/14 01:19:16;;;;;;;62.55;33.88;;;;;;;4.42;100.00;98387.11;1815699;79;21123;-81
2022/10/14 01:21:49;;;;;;;70.08;31.75;;;;;;;4.40;100.00;98393.25;1787607;80;21037;-81
2022/10/14 01:24:41;;;;;;;63.52;31.17;;;;;;;4.38;100.00;98390.80;1815649;79;21028;-81
2022/10/14 01:27:27;;;;;;;63.48;30.75;;;;;;;4.37;100.00;98389.69;1783883;80;21088;-81
2022/10/14 01:30:10;;;;;;;59.67;29.48;;;;;;;4.36;100.00;98379.48;1786538;80;21476;-81
2022/10/14 01:32:44;;;;;;;59.95;30.77;;;;;;;4.36;100.00;98379.48;1786540;79;21422;-81
2022/10/14 01:35:41;;;;;;;61.80;30.00;;;;;;;4.33;100.00;98369.72;1787398;80;21028;-81
2022/10/14 01:38:15;;;;;;;52.67;27.98;;;;;;;4.33;100.00;98379.92;1815701;78;20997;-80
2022/10/14 01:40:49;;;;;;;52.13;26.50;;;;;;;4.30;100.00;98382.27;1787254;80;21136;-81
2022/10/14 01:43:16;;;;;;;55.45;30.20;;;;;;;4.25;100.00;98373.03;1815889;78;20997;-81
2022/10/14 01:45:42;;;;;;;55.03;29.35;;;;;;;4.27;100.00;98374.66;1787115;80;21525;-81
2022/10/14 01:48:08;;;;;;;57.40;31.33;;;;;;;4.28;100.00;98373.11;1805989;79;20863;-81
2022/10/14 01:50:34;;;;;;;57.13;30.23;;;;;;;4.25;100.00;98370.87;1772233;81;20874;-80
2022/10/14 01:53:05;;;;;;;56.48;31.50;;;;;;;4.24;100.00;98371.92;1772286;81;21141;-80
2022/10/14 01:55:34;;;;;;;57.23;31.25;;;;;;;4.24;100.00;98371.92;1772082;80;21545;-80
2022/10/14 01:58:00;;;;;;;56.75;32.00;;;;;;;4.30;100.00;98372.35;1744869;81;21076;-81
2022/10/14 02:00:26;;;;;;;49.93;29.57;;;;;;;4.37;100.00;98370.38;1771983;81;20886;-81
2022/10/14 02:02:52;;;;;;;53.13;29.92;;;;;;;4.40;100.00;98368.56;1772329;81;21631;-81
2022/10/14 02:05:46;;;;;;;54.35;29.30;;;;;;;4.43;100.00;98367.28;1788795;80;21329;-80
2022/10/14 02:08:20;;;;;;;50.90;29.15;;;;;;;4.45;100.00;98366.02;1824074;78;21033;-80
2022/10/14 02:11:16;;;;;;;49.38;28.55;;;;;;;4.53;100.00;98369.70;1824150;78;20988;-81
2022/10/14 02:14:06;;;;;;;48.75;27.90;;;;;;;4.61;100.00;98360.99;1824107;78;21458;-81
2022/10/14 02:16:58;;;;;;;45.05;27.75;;;;;;;4.66;100.00;98360.59;1824369;78;20969;-81
2022/10/14 02:19:28;;;;;;;46.13;28.07;;;;;;;4.72;100.00;98355.64;1823019;78;21143;-81
2022/10/14 02:22:02;;;;;;;49.73;28.38;;;;;;;4.76;100.00;98349.27;1795427;78;21056;-81
2022/10/14 02:24:42;;;;;;;44.70;26.65;;;;;;;4.79;100.00;98351.51;1824084;78;21441;-81
2022/10/14 02:27:12;;;;;;;41.10;26.42;;;;;;;4.83;100.00;98347.28;1822634;78;21048;-81
2022/10/14 02:29:38;;;;;;;42.15;24.47;;;;;;;4.84;100.00;98350.27;1794367;78;21444;-81
2022/10/14 02:34:49;;;;;;;44.20;24.82;;;;;;;5.13;100.00;98343.62;1869687;76;21735;-81
2022/10/14 02:37:15;;;;;;;44.88;25.12;;;;;;;5.13;100.00;98347.15;1824571;78;20965;-81
2022/10/14 02:39:45;;;;;;;45.40;24.80;;;;;;;5.19;100.00;98340.80;1816846;79;21101;-81
2022/10/14 02:42:11;;;;;;;44.60;23.05;;;;;;;5.20;100.00;98342.44;1816719;79;21560;-80
2022/10/14 02:44:37;;;;;;;39.95;23.30;;;;;;;5.16;100.00;98341.29;1816487;78;20882;-81
2022/10/14 02:47:03;;;;;;;45.90;26.05;;;;;;;5.20;100.00;98340.28;1816815;79;20866;-81
2022/10/14 02:49:28;;;;;;;45.75;28.12;;;;;;;5.20;100.00;98347.00;1816701;79;20948;-81
2022/10/14 02:51:55;;;;;;;55.28;28.92;;;;;;;5.03;100.00;98342.88;1816713;79;21724;-81
2022/10/14 02:54:21;;;;;;;56.90;28.02;;;;;;;4.88;100.00;98338.54;1816362;78;21188;-81
2022/10/14 02:56:47;;;;;;;44.53;24.90;;;;;;;4.72;100.00;98334.17;1816521;79;20839;-81
2022/10/14 02:59:13;;;;;;;43.65;24.77;;;;;;;4.65;100.00;98333.47;1816457;78;20902;-81
2022/10/14 03:01:39;;;;;;;46.73;28.27;;;;;;;4.51;100.00;98338.23;1816885;79;20842;-81
2022/10/14 03:04:05;;;;;;;41.75;23.98;;;;;;;4.40;100.00;98336.37;1798824;77;20927;-81
2022/10/14 03:06:30;;;;;;;57.88;27.58;;;;;;;4.43;100.00;98338.58;1765575;81;20943;-80
2022/10/14 03:08:56;;;;;;;50.25;28.62;;;;;;;4.44;100.00;98337.56;1765458;81;20955;-80
2022/10/14 03:11:22;;;;;;;53.95;28.35;;;;;;;4.43;100.00;98335.08;1765670;81;20868;-81
2022/10/14 03:13:48;;;;;;;50.95;27.37;;;;;;;4.38;100.00;98327.74;1765427;80;20885;-81
2022/10/14 03:16:14;;;;;;;51.80;29.37;;;;;;;4.30;100.00;98331.30;1765602;81;21849;-80
2022/10/14 03:18:40;;;;;;;52.83;27.65;;;;;;;4.21;100.00;98332.16;1765301;81;20928;-81
2022/10/14 03:21:06;;;;;;;50.00;26.57;;;;;;;4.22;100.00;98329.23;1765734;81;21014;-81
2022/10/14 03:23:32;;;;;;;47.98;26.50;;;;;;;4.23;100.00;98330.86;1765428;81;20864;-81
2022/10/14 03:25:58;;;;;;;47.80;27.07;;;;;;;4.21;100.00;98332.16;1765723;81;21101;-81
2022/10/14 03:28:24;;;;;;;50.90;28.92;;;;;;;4.20;100.00;98331.34;1765469;81;21343;-81
2022/10/14 03:30:50;;;;;;;46.13;27.80;;;;;;;4.20;100.00;98330.52;1765564;81;21467;-80
2022/10/14 03:33:15;;;;;;;46.33;26.82;;;;;;;4.22;100.00;98328.42;1765498;81;20951;-80
2022/10/14 03:35:41;;;;;;;44.60;25.80;;;;;;;4.31;100.00;98332.92;1765639;81;20975;-80
2022/10/14 03:38:07;;;;;;;47.93;29.37;;;;;;;4.30;100.00;98329.95;1765502;81;20876;-81
2022/10/14 03:40:33;;;;;;;50.80;28.20;;;;;;;4.27;100.00;98328.53;1765700;81;21120;-81
2022/10/14 03:43:00;;;;;;;60.17;28.17;;;;;;;4.23;100.00;98322.00;1733020;81;20870;-80
2022/10/14 03:45:27;;;;;;;48.75;28.85;;;;;;;4.14;100.00;98324.20;1762806;81;21039;-81
2022/10/14 03:47:54;;;;;;;48.30;28.07;;;;;;;4.12;100.00;98321.47;1759997;81;20969;-81
2022/10/14 03:50:20;;;;;;;51.60;26.50;;;;;;;4.05;100.00;98320.75;1757678;81;21068;-81
2022/10/14 03:52:46;;;;;;;61.65;30.50;;;;;;;4.00;100.00;98322.77;1746087;81;21314;-80
2022/10/14 03:55:12;;;;;;;74.32;36.20;;;;;;;3.98;100.00;98318.69;1769006;81;21023;-81
2022/10/14 03:57:38;;;;;;;67.65;33.50;;;;;;;3.95;100.00;98322.66;1715825;82;21021;-81
2022/10/14 04:00:06;;;;;;;67.80;35.17;;;;;;;3.93;100.00;98318.02;1768481;81;21358;-80
2022/10/14 04:02:31;;;;;;;66.60;33.88;;;;;;;3.87;100.00;98317.09;1768950;81;21043;-80
2022/10/14 04:04:57;;;;;;;64.65;33.23;;;;;;;3.83;100.00;98303.03;1750296;81;21123;-81
2022/10/14 04:07:23;;;;;;;70.75;35.20;;;;;;;3.80;100.00;98306.17;1752479;81;21008;-81
2022/10/14 04:09:49;;;;;;;77.60;39.42;;;;;;;3.78;100.00;98309.09;1752251;81;20898;-81
2022/10/14 04:12:15;;;;;;;97.67;45.20;;;;;;;3.73;100.00;98305.45;1752486;81;20941;-81
2022/10/14 04:14:41;;;;;;;90.45;41.80;;;;;;;3.70;100.00;98308.08;1752048;81;20965;-80
2022/10/14 04:17:07;;;;;;;92.95;42.43;;;;;;;3.60;100.00;98296.56;1752465;81;21239;-80
2022/10/14 04:19:33;;;;;;;76.35;38.33;;;;;;;3.62;100.00;98302.52;1752417;81;21615;-81
2022/10/14 04:22:00;;;;;;;73.02;35.70;;;;;;;3.63;100.00;98306.82;1752452;81;20993;-81
2022/10/14 04:24:26;;;;;;;69.32;35.95;;;;;;;3.62;100.00;98313.75;1750873;81;21057;-81
2022/10/14 04:26:52;;;;;;;67.62;34.92;;;;;;;3.59;100.00;98314.19;1752539;81;20977;-81
2022/10/14 04:29:18;;;;;;;66.85;36.23;;;;;;;3.50;100.00;98306.99;1724539;81;21622;-81
2022/10/14 04:31:44;;;;;;;67.78;35.88;;;;;;;3.43;100.00;98301.45;1752524;81;20953;-81
2022/10/14 04:34:10;;;;;;;66.70;36.17;;;;;;;3.43;100.00;98308.16;1752130;81;20886;-80
2022/10/14 04:36:37;;;;;;;63.90;37.13;;;;;;;3.37;100.00;98299.15;1752260;81;21006;-81
2022/10/14 04:39:03;;;;;;;75.62;41.90;;;;;;;3.37;100.00;98305.33;1752063;81;21525;-81
2022/10/14 04:41:29;;;;;;;79.25;44.03;;;;;;;3.35;100.00;98299.91;1752350;81;21056;-80
2022/10/14 04:43:55;;;;;;;78.25;41.30;;;;;;;3.37;100.00;98297.81;1752085;81;20846;-81
2022/10/14 04:46:21;;;;;;;72.15;40.65;;;;;;;3.32;100.00;98286.42;1752302;81;20913;-81
2022/10/14 04:48:47;;;;;;;74.47;42.10;;;;;;;3.41;100.00;98297.64;1771210;81;20892;-81
2022/10/14 04:51:13;;;;;;;75.78;41.13;;;;;;;3.44;100.00;98297.73;1771232;81;21031;-81
2022/10/14 04:53:39;;;;;;;59.83;35.28;;;;;;;3.46;100.00;98295.11;1771092;81;21147;-81
2022/10/14 04:56:06;;;;;;;69.77;35.92;;;;;;;3.47;100.00;98291.38;1771167;81;21668;-81
2022/10/14 04:58:31;;;;;;;69.60;37.48;;;;;;;3.49;100.00;98297.84;1770892;81;21000;-81
2022/10/14 05:00:57;;;;;;;64.60;33.90;;;;;;;3.47;100.00;98293.25;1754349;79;20979;-80
2022/10/14 05:03:23;;;;;;;60.92;32.93;;;;;;;3.47;100.00;98291.91;1752482;81;21665;-81
2022/10/14 05:05:50;;;;;;;53.15;30.95;;;;;;;3.47;100.00;98291.91;1756598;81;21087;-81
2022/10/14 05:08:16;;;;;;;60.65;34.90;;;;;;;3.54;100.00;98296.13;1755331;79;21056;-81
2022/10/14 05:10:42;;;;;;;53.80;30.32;;;;;;;3.57;100.00;98299.69;1751489;80;20926;-81
2022/10/14 05:13:08;;;;;;;67.03;35.85;;;;;;;3.59;100.00;98294.94;1742509;81;20959;-80
2022/10/14 05:15:34;;;;;;;62.60;32.95;;;;;;;3.57;100.00;98289.48;1748525;81;20915;-81
2022/10/14 05:18:00;;;;;;;56.60;33.33;;;;;;;3.62;100.00;98294.47;1750872;81;22029;-81
2022/10/14 05:20:26;;;;;;;58.48;31.55;;;;;;;3.64;100.00;98288.88;1747144;81;20896;-81
2022/10/14 05:22:52;;;;;;;49.33;28.83;;;;;;;3.65;100.00;98289.98;1758569;81;20948;-81
2022/10/14 05:25:17;;;;;;;53.00;28.20;;;;;;;3.66;100.00;98290.27;1738965;82;20870;-81
2022/10/14 05:27:43;;;;;;;43.98;25.45;;;;;;;3.67;100.00;98284.39;1750241;80;21042;-81
2022/10/14 05:30:10;;;;;;;47.55;25.27;;;;;;;3.72;100.00;98288.55;1769424;81;21091;-81
2022/10/14 05:32:36;;;;;;;50.43;26.45;;;;;;;3.78;100.00;98284.16;1769425;81;21050;-81
2022/10/14 05:35:03;;;;;;;43.87;25.50;;;;;;;3.84;100.00;98287.23;1769237;81;20860;-81
2022/10/14 05:37:29;;;;;;;50.43;29.75;;;;;;;3.88;100.00;98286.56;1741250;81;20983;-81
2022/10/14 05:39:55;;;;;;;51.90;28.77;;;;;;;3.96;100.00;98282.20;1749258;79;20913;-81
2022/10/14 05:42:21;;;;;;;52.25;29.77;;;;;;;4.06;100.00;98290.20;1761716;79;21684;-81
2022/10/14 05:44:46;;;;;;;54.93;27.27;;;;;;;4.12;100.00;98284.73;1760026;81;20955;-81
2022/10/14 05:47:13;;;;;;;47.75;27.25;;;;;;;4.20;100.00;98285.73;1764438;81;21014;-81
2022/10/14 05:49:39;;;;;;;46.13;24.37;;;;;;;4.28;100.00;98279.22;1756022;79;21074;-80
2022/10/14 05:52:05;;;;;;;46.88;25.80;;;;;;;4.33;100.00;98273.95;1748054;81;21636;-81
2022/10/14 05:54:30;;;;;;;45.73;24.90;;;;;;;4.38;100.00;98278.63;1755001;81;21155;-81
2022/10/14 05:56:56;;;;;;;45.65;25.60;;;;;;;4.40;100.00;98281.36;1747170;81;20920;-81
2022/10/14 05:59:22;;;;;;;49.88;27.87;;;;;;;4.47;100.00;98279.91;1748876;81;20998;-80
2022/10/14 06:01:48;;;;;;;48.45;28.17;;;;;;;4.52;100.00;98283.50;1765118;79;20908;-81
2022/10/14 06:04:18;;;;;;;45.98;27.65;;;;;;;4.60;100.00;98284.20;1756814;81;21697;-81
2022/10/14 06:06:44;;;;;;;49.70;27.15;;;;;;;4.68;100.00;98287.88;1748534;79;22087;-81
2022/10/14 06:09:10;;;;;;;50.80;28.77;;;;;;;4.76;100.00;98286.99;1738683;82;20963;-81
2022/10/14 06:11:36;;;;;;;48.50;25.92;;;;;;;4.87;100.00;98281.34;1757040;81;21050;-81
2022/10/14 06:14:02;;;;;;;44.88;27.17;;;;;;;4.96;100.00;98282.59;1744906;81;20871;-81
2022/10/14 06:16:28;;;;;;;49.60;28.38;;;;;;;5.04;100.00;98284.08;1751911;79;20909;-81
2022/10/14 06:18:54;;;;;;;43.00;27.20;;;;;;;5.16;100.00;98286.22;1749489;81;21216;-81
2022/10/14 06:21:20;;;;;;;42.75;27.32;;;;;;;5.24;100.00;98285.84;1719320;81;21681;-81
2022/10/14 06:23:46;;;;;;;47.30;28.80;;;;;;;5.32;100.00;98288.16;1734631;80;20958;-80
2022/10/14 06:26:12;;;;;;;41.48;25.70;;;;;;;5.45;100.00;98287.57;1744330;81;20959;-81
2022/10/14 06:28:38;;;;;;;47.33;27.95;;;;;;;5.60;100.00;98285.17;1752391;81;20920;-81
2022/10/14 06:31:04;;;;;;;45.58;27.55;;;;;;;5.83;100.00;98281.56;1739701;81;22060;-81
2022/10/14 06:33:30;;;;;;;43.02;29.02;;;;;;;6.04;100.00;98281.39;1747702;81;21082;-81
2022/10/14 06:35:56;;;;;;;49.00;29.30;;;;;;;6.25;100.00;98282.02;1748288;81;20963;-81
2022/10/14 06:38:23;;;;;;;47.08;29.42;;;;;;;6.38;100.00;98274.94;1741447;81;21173;-81
2022/10/14 06:40:51;;;;;;;52.05;32.23;;;;;;;6.54;100.00;98275.99;1746979;80;20904;-81
2022/10/14 06:43:18;;;;;;;45.67;29.27;;;;;;;6.73;100.00;98276.52;1745939;81;21500;-81
2022/10/14 06:45:44;;;;;;;45.67;28.92;;;;;;;6.87;100.00;98271.59;1743692;81;21395;-82
2022/10/14 06:48:10;;;;;;;45.10;29.18;;;;;;;6.99;100.00;98279.83;1744160;81;20888;-81
2022/10/14 06:50:36;;;;;;;42.00;27.30;;;;;;;7.10;100.00;98270.02;1746275;81;20932;-81
2022/10/14 06:53:02;;;;;;;41.60;27.62;;;;;;;7.23;100.00;98275.02;1746269;81;21085;-81
2022/10/14 06:55:28;;;;;;;44.38;27.52;;;;;;;7.30;100.00;98279.68;1743678;81;21144;-81
2022/10/14 06:57:54;;;;;;;45.58;27.82;;;;;;;7.36;100.00;98277.87;1751231;81;21152;-81
2022/10/14 07:00:20;;;;;;;40.70;27.05;;;;;;;7.43;100.00;98274.95;1747752;81;20927;-82
2022/10/14 07:02:46;;;;;;;44.83;28.60;;;;;;;7.48;100.00;98275.02;1743264;81;20844;-81
2022/10/14 07:05:12;;;;;;;46.48;28.27;;;;;;;7.56;100.00;98278.08;1742817;81;20892;-81
2022/10/14 07:07:38;;;;;;;40.92;27.58;;;;;;;7.64;100.00;98274.93;1741756;81;21027;-81
2022/10/14 07:10:04;;;;;;;43.42;27.30;;;;;;;7.74;100.00;98272.86;1746190;81;20975;-81
2022/10/14 07:12:30;;;;;;;44.63;28.00;;;;;;;7.93;100.00;98269.25;1741877;81;21106;-81
2022/10/14 07:14:56;;;;;;;42.75;27.82;;;;;;;8.05;100.00;98261.01;1739406;81;20999;-81
2022/10/14 07:17:22;;;;;;;42.73;26.07;;;;;;;8.16;100.00;98268.11;1742264;81;20935;-81
2022/10/14 07:19:48;;;;;;;41.85;26.87;;;;;;;8.27;100.00;98269.80;1747169;81;21282;-81
2022/10/14 07:22:15;;;;;;;40.63;24.95;;;;;;;8.40;100.00;98274.00;1744128;81;20916;-81
2022/10/14 07:24:41;;;;;;;37.63;26.77;;;;;;;8.56;100.00;98273.57;1743001;81;21102;-81
2022/10/14 07:27:08;;;;;;;41.10;28.20;;;;;;;8.76;100.00;98273.69;1744566;81;20938;-81
2022/10/14 07:29:34;;;;;;;43.63;28.32;;;;;;;9.21;100.00;98269.03;1751240;81;21047;-81
2022/10/14 07:32:00;;;;;;;44.27;27.58;;;;;;;9.43;100.00;98268.84;1713423;81;21306;-81
2022/10/14 07:34:26;;;;;;;43.73;28.23;;;;;;;9.66;100.00;98264.86;1743703;79;20952;-82
2022/10/14 07:36:52;;;;;;;49.63;30.75;;;;;;;9.77;100.00;98260.27;1741493;81;21011;-81
2022/10/14 07:39:18;;;;;;;85.20;48.95;;;;;;;9.94;100.00;98258.67;1744284;81;21093;-81
2022/10/14 07:41:44;;;;;;;85.15;50.55;;;;;;;10.02;100.00;98254.88;1742708;81;20928;-81
2022/10/14 07:44:12;;;;;;;78.25;45.83;;;;;;;10.11;100.00;98253.80;1749777;81;21815;-82
2022/10/14 07:46:39;;;;;;;60.90;35.80;;;;;;;10.22;100.00;98251.90;1744366;81;21566;-82
2022/10/14 07:49:09;;;;;;;49.42;32.25;;;;;;;10.39;100.00;98258.69;1742354;81;21118;-81
2022/10/14 07:51:35;;;;;;;50.95;28.42;;;;;;;10.69;100.00;98257.03;1748254;81;21522;-81
2022/10/14 07:54:01;;;;;;;41.65;24.35;;;;;;;10.96;100.00;98253.42;1742407;81;20932;-82
2022/10/14 07:56:27;;;;;;;42.25;29.30;;;;;;;11.20;100.00;98248.73;1756800;80;21194;-81
2022/10/14 07:58:54;;;;;;;51.85;33.42;;;;;;;11.33;100.00;98250.83;1760584;79;20877;-81
2022/10/14 08:01:20;;;;;;;59.50;34.25;;;;;;;11.55;100.00;98252.62;1759834;79;20984;-81
2022/10/14 08:03:47;;;;;;;49.15;30.27;;;;;;;11.74;100.00;98252.77;1747305;80;20942;-81
2022/10/14 08:06:13;;;;;;;43.48;26.80;;;;;;;11.97;100.00;98248.58;1748730;80;21047;-82
2022/10/14 08:08:39;;;;;;;44.50;26.05;;;;;;;12.15;100.00;98248.44;1708560;81;21579;-81
2022/10/14 08:11:21;;;;;;;39.42;24.30;;;;;;;12.40;100.00;98250.94;1741558;80;21078;-81
2022/10/14 08:13:47;;;;;;;38.33;25.48;;;;;;;12.79;100.00;98244.56;1733779;81;21038;-82
2022/10/14 08:16:17;;;;;;;33.08;23.70;;;;;;;13.15;100.00;98247.68;1745280;80;21146;-81
2022/10/14 08:18:44;;;;;;;39.63;26.27;;;;;;;13.29;100.00;98249.73;1762890;80;21027;-81
2022/10/14 08:21:10;;;;;;;39.13;27.07;;;;;;;13.57;100.00;98243.91;1743840;80;22041;-82
2022/10/14 08:23:36;;;;;;;46.33;27.02;;;;;;;13.42;100.00;98239.52;1743138;80;20955;-82
2022/10/14 08:26:02;;;;;;;35.15;25.95;;;;;;;13.39;100.00;98238.16;1757001;80;20952;-82
2022/10/14 08:28:28;;;;;;;35.45;25.40;;;;;;;13.71;100.00;98242.90;1766443;80;20960;-82
2022/10/14 08:30:54;;;;;;;45.70;28.47;;;;;;;13.73;100.00;98250.22;1791306;80;20878;-82
2022/10/14 08:33:19;;;;;;;60.80;40.20;;;;;;;14.07;99.69;98239.63;1755815;80;21270;-82
2022/10/14 08:35:45;;;;;;;57.65;31.82;;;;;;;14.08;98.21;98241.25;1721996;80;21079;-82
2022/10/14 08:38:11;;;;;;;39.95;27.22;;;;;;;14.24;100.00;98237.17;1742156;80;20856;-82
2022/10/14 08:41:09;;;;;;;31.15;22.05;;;;;;;14.37;99.31;98235.61;1746377;80;21650;-82
2022/10/14 08:43:36;;;;;;;36.73;23.00;;;;;;;14.51;100.00;98232.92;1738683;80;21130;-82
2022/10/14 08:46:19;;;;;;;46.77;26.62;;;;;;;14.74;100.00;98236.05;1752576;80;21183;-82
2022/10/14 08:48:45;;;;;;;36.48;24.50;;;;;;;14.91;98.79;98230.00;1746003;80;21459;-82
2022/10/14 08:51:16;;;;;;;47.27;28.00;;;;;;;15.04;96.91;98233.30;1754822;80;20992;-82
2022/10/14 08:53:45;;;;;;;34.45;21.85;;;;;;;15.08;96.80;98232.13;1755109;80;21035;-82
2022/10/14 08:56:11;;;;;;;35.10;21.90;;;;;;;15.05;95.37;98228.09;1719567;81;21091;-82
2022/10/14 08:58:50;;;;;;;36.33;23.07;;;;;;;14.94;95.18;98231.56;1737623;81;21613;-82
2022/10/14 09:01:30;;;;;;;;;;;;;;;14.97;96.07;98229.36;1745472;80;20996;-82
2022/10/14 09:04:00;;;;;;;58.23;35.85;;;;;;;14.95;95.93;98224.18;1742733;80;20483;-82
2022/10/14 09:06:29;;;;;;;57.67;37.40;;;;;;;15.02;97.04;98220.50;1740862;80;21055;-82
2022/10/14 09:09:20;;;;;;;48.68;29.25;;;;;;;15.11;94.73;98219.23;1746942;81;21027;-82
2022/10/14 09:11:53;;;;;;;52.48;34.18;;;;;;;15.21;95.36;98218.48;1746429;81;21852;-82
2022/10/14 09:14:23;;;;;;;81.57;51.73;;;;;;;15.38;94.29;98218.39;1747077;80;21034;-82
2022/10/14 09:16:53;;;;;;;65.50;40.60;;;;;;;15.39;93.92;98221.39;1762448;80;21062;-82
2022/10/14 09:19:31;;;;;;;54.27;32.65;;;;;;;15.37;93.86;98219.50;1758239;81;21544;-82
2022/10/14 09:21:58;;;;;;;52.03;32.90;;;;;;;15.44;93.64;98219.34;1746633;81;21461;-82
2022/10/14 09:24:38;;;;;;;50.78;33.05;;;;;;;15.49;93.96;98215.15;1748766;80;21122;-82
2022/10/14 09:27:15;;;;;;;40.05;24.30;;;;;;;15.59;93.43;98216.84;1749528;80;21621;-82
2022/10/14 09:29:51;;;;;;;30.35;19.57;;;;;;;15.70;93.29;98220.98;1748492;80;21028;-83
2022/10/14 09:32:43;;;;;;;29.57;21.45;;;;;;;15.73;93.55;98220.94;1748155;80;21020;-82
2022/10/14 09:35:31;;;;;;;29.20;18.12;;;;;;;15.73;93.35;98221.75;1749861;80;20997;-82
2022/10/14 09:37:57;;;;;;;29.77;19.80;;;;;;;15.63;91.00;98217.05;1756595;80;21115;-82
2022/10/14 09:40:40;;;;;;;27.45;19.57;;;;;;;15.55;90.50;98216.38;1745677;80;20845;-82
2022/10/14 09:43:16;;;;;;;29.82;19.95;;;;;;;15.58;91.75;98222.62;1744031;80;21580;-82
2022/10/14 09:45:57;;;;;;;35.00;21.12;;;;;;;15.64;91.66;98211.87;1767945;80;21024;-83
2022/10/14 09:48:40;;;;;;;36.28;21.80;;;;;;;15.76;92.26;98215.66;1751232;80;21103;-82
2022/10/14 09:51:12;;;;;;;30.85;20.55;;;;;;;15.96;92.49;98217.09;1752366;80;21257;-82
2022/10/14 09:53:44;;;;;;;26.65;19.48;;;;;;;16.06;91.12;98214.67;1716761;80;21018;-82
2022/10/14 09:56:09;;;;;;;28.40;20.85;;;;;;;16.12;90.52;98218.09;1747742;80;21031;-82
2022/10/14 09:58:42;;;;;;;27.77;19.10;;;;;;;16.23;91.24;98210.69;1748836;80;21502;-82
2022/10/14 10:01:18;;;;;;;31.97;19.40;;;;;;;16.40;90.28;98205.08;1753839;79;21400;-82
2022/10/14 10:03:44;;;;;;;28.85;19.75;;;;;;;16.53;90.27;98202.28;1751068;80;21561;-82
2022/10/14 10:06:14;;;;;;;26.95;17.05;;;;;;;16.72;90.91;98203.44;1754534;80;21110;-82
2022/10/14 10:08:54;;;;;;;22.93;16.50;;;;;;;16.78;86.43;98204.11;1753185;80;21500;-82
2022/10/14 10:11:37;;;;;;;24.32;15.25;;;;;;;16.85;87.09;98201.73;1732133;81;21069;-82
2022/10/14 10:14:26;;;;;;;20.43;15.40;;;;;;;17.01;86.28;98202.13;1743326;80;21133;-82
2022/10/14 10:17:10;;;;;;;19.35;15.18;;;;;;;17.22;86.49;98193.55;1727946;81;21739;-82
2022/10/14 10:19:45;;;;;;;25.40;15.30;;;;;;;17.32;82.40;98187.77;1743989;80;21063;-82
2022/10/14 10:22:26;;;;;;;16.82;13.58;;;;;;;17.44;84.30;98194.01;1750144;80;21488;-82
2022/10/14 10:25:03;;;;;;;22.60;14.55;;;;;;;17.40;79.31;98191.65;1706195;82;21102;-82
2022/10/14 10:27:41;;;;;;;21.60;14.80;;;;;;;17.55;84.32;98190.39;1736233;80;21582;-82
2022/10/14 10:30:38;;;;;;;20.50;16.80;;;;;;;17.59;83.53;98194.08;1746598;81;21150;-82
2022/10/14 10:33:28;;;;;;;24.70;15.63;;;;;;;17.43;82.85;98192.37;1745262;80;21198;-82
2022/10/14 10:36:19;;;;;;;26.05;15.35;;;;;;;17.42;83.20;98190.20;1709704;80;20991;-82
2022/10/14 10:39:02;;;;;;;24.50;16.30;;;;;;;17.41;80.55;98189.15;1741484;80;21023;-82
2022/10/14 10:41:49;;;;;;;22.40;15.30;;;;;;;17.46;81.50;98185.70;1741078;80;21002;-83
2022/10/14 10:44:26;;;;;;;22.62;15.13;;;;;;;17.67;82.70;98185.06;1740902;80;21742;-82
2022/10/14 10:47:15;;;;;;;20.40;13.98;;;;;;;17.62;79.98;98174.28;1739828;81;20980;-82
2022/10/14 10:50:08;;;;;;;19.52;15.50;;;;;;;17.54;79.54;98169.60;1742588;80;21272;-82
2022/10/14 10:53:10;;;;;;;23.77;14.70;;;;;;;17.59;78.90;98177.08;1747464;80;21158;-82
2022/10/14 10:55:58;;;;;;;22.00;14.53;;;;;;;17.79;81.28;98166.66;1749407;80;21111;-83
2022/10/14 10:58:36;;;;;;;21.15;16.75;;;;;;;17.94;81.73;98160.66;1747165;80;21098;-83
2022/10/14 11:01:35;;;;;;;21.90;15.10;;;;;;;17.99;79.77;98167.36;1738855;80;21087;-83
2022/10/14 11:04:34;;;;;;;20.05;14.87;;;;;;;18.05;79.47;98177.03;1742084;80;21044;-82
2022/10/14 11:13:48;;;;;;;26.48;17.27;;;;;;;17.97;79.86;98164.95;1741889;81;21284;-82
2022/10/14 11:16:32;;;;;;;31.65;21.90;;;;;;;17.87;76.85;98165.28;1741289;81;21130;-82
2022/10/14 11:19:19;;;;;;;26.17;19.87;;;;;;;17.73;80.39;98161.89;1742678;80;21099;-82
2022/10/14 11:22:03;;;;;;;25.90;18.35;;;;;;;17.47;79.08;98162.66;1740710;80;20981;-82
2022/10/14 11:24:59;;;;;;;22.65;16.32;;;;;;;17.35;80.45;98158.39;1750604;80;21093;-82
2022/10/14 11:27:38;;;;;;;22.70;15.48;;;;;;;17.23;80.19;98160.12;1737533;81;21317;-82
2022/10/14 11:30:16;;;;;;;20.68;14.68;;;;;;;17.25;81.30;98160.05;1708122;81;21520;-82
2022/10/14 11:33:18;;;;;;;25.50;15.90;;;;;;;17.20;81.89;98158.84;1745314;81;21050;-82
2022/10/14 11:35:59;;;;;;;22.67;14.55;;;;;;;17.13;82.19;98157.13;1740262;81;21086;-82
2022/10/14 11:38:42;;;;;;;21.50;15.70;;;;;;;17.01;82.41;98159.69;1743511;81;22225;-82
2022/10/14 11:41:16;;;;;;;23.75;16.20;;;;;;;16.88;82.43;98155.94;1740033;79;21134;-82
2022/10/14 11:44:09;;;;;;;23.87;14.87;;;;;;;16.73;82.83;98164.57;1737968;80;20995;-82